sensor_id;sensor_type;location;lat;lon;timestamp;temperature;humidity
16511;DHT22;8368;48.772;8.754;2023-04-25T00:02:21;6.10;99.90
16511;DHT22;8368;48.772;8.754;2023-04-25T00:04:47;6.10;99.90
16511;DHT22;8368;48.772;8.754;2023-04-25T00:07:15;6.10;99.90
16511;DHT22;8368;48.772;8.754;2023-04-25T00:09:41;6.00;99.90
16511;DHT22;8368;48.772;8.754;2023-04-25T00:12:06;6.00;99.90
16511;DHT22;8368;48.772;8.754;2023-04-25T00:14:32;6.10;99.90
16511;DHT22;8368;48.772;8.754;2023-04-25T00:16:59;6.10;99.90
16511;DHT22;8368;48.772;8.754;2023-04-25T00:19:25;6.10;99.90
16511;DHT22;8368;48.772;8.754;2023-04-25T00:21:52;6.10;99.90
16511;DHT22;8368;48.772;8.754;2023-04-25T00:24:19;6.10;99.90
16511;DHT22;8368;48.772;8.754;2023-04-25T00:26:44;6.20;99.90
16511;DHT22;8368;48.772;8.754;2023-04-25T00:29:10;6.10;99.90
16511;DHT22;8368;48.772;8.754;2023-04-25T00:31:36;6.20;99.90
16511;DHT22;8368;48.772;8.754;2023-04-25T00:34:01;6.20;99.90
16511;DHT22;8368;48.772;8.754;2023-04-25T00:36:27;6.20;99.90
16511;DHT22;8368;48.772;8.754;2023-04-25T00:38:53;6.30;99.90
16511;DHT22;8368;48.772;8.754;2023-04-25T00:41:20;6.30;99.90
16511;DHT22;8368;48.772;8.754;2023-04-25T00:43:46;6.30;99.90
16511;DHT22;8368;48.772;8.754;2023-04-25T00:46:13;6.30;99.90
16511;DHT22;8368;48.772;8.754;2023-04-25T00:48:38;6.30;99.90
16511;DHT22;8368;48.772;8.754;2023-04-25T00:51:04;6.30;99.90
16511;DHT22;8368;48.772;8.754;2023-04-25T00:53:30;6.30;99.90
16511;DHT22;8368;48.772;8.754;2023-04-25T00:55:57;6.30;99.90
16511;DHT22;8368;48.772;8.754;2023-04-25T00:58:23;6.20;99.90
16511;DHT22;8368;48.772;8.754;2023-04-25T01:00:50;6.10;99.90
16511;DHT22;8368;48.772;8.754;2023-04-25T01:03:18;6.10;99.90
16511;DHT22;8368;48.772;8.754;2023-04-25T01:05:45;6.00;99.90
16511;DHT22;8368;48.772;8.754;2023-04-25T01:08:12;6.00;99.90
16511;DHT22;8368;48.772;8.754;2023-04-25T01:10:38;5.90;99.90
16511;DHT22;8368;48.772;8.754;2023-04-25T01:13:03;5.80;99.90
16511;DHT22;8368;48.772;8.754;2023-04-25T01:15:29;5.70;99.90
16511;DHT22;8368;48.772;8.754;2023-04-25T01:17:55;5.60;99.90
16511;DHT22;8368;48.772;8.754;2023-04-25T01:20:22;5.60;99.90
16511;DHT22;8368;48.772;8.754;2023-04-25T01:22:49;5.60;99.90
16511;DHT22;8368;48.772;8.754;2023-04-25T01:25:15;5.60;99.90
16511;DHT22;8368;48.772;8.754;2023-04-25T01:27:42;5.50;99.90
16511;DHT22;8368;48.772;8.754;2023-04-25T01:30:08;5.50;99.90
16511;DHT22;8368;48.772;8.754;2023-04-25T01:32:34;5.50;99.90
16511;DHT22;8368;48.772;8.754;2023-04-25T01:35:08;5.50;99.90
16511;DHT22;8368;48.772;8.754;2023-04-25T01:37:39;5.50;99.90
16511;DHT22;8368;48.772;8.754;2023-04-25T01:40:06;5.50;99.90
16511;DHT22;8368;48.772;8.754;2023-04-25T01:42:33;5.40;99.90
16511;DHT22;8368;48.772;8.754;2023-04-25T01:44:58;5.40;99.90
16511;DHT22;8368;48.772;8.754;2023-04-25T01:47:24;5.40;99.90
16511;DHT22;8368;48.772;8.754;2023-04-25T01:49:50;5.50;99.90
16511;DHT22;8368;48.772;8.754;2023-04-25T01:52:15;5.40;99.90
16511;DHT22;8368;48.772;8.754;2023-04-25T01:54:41;5.30;99.90
16511;DHT22;8368;48.772;8.754;2023-04-25T01:57:10;5.30;99.90
16511;DHT22;8368;48.772;8.754;2023-04-25T01:59:36;5.30;99.90
16511;DHT22;8368;48.772;8.754;2023-04-25T02:02:02;5.40;99.90
16511;DHT22;8368;48.772;8.754;2023-04-25T02:04:29;5.50;99.90
16511;DHT22;8368;48.772;8.754;2023-04-25T02:06:55;5.50;99.90
16511;DHT22;8368;48.772;8.754;2023-04-25T02:09:21;5.50;99.90
16511;DHT22;8368;48.772;8.754;2023-04-25T02:11:46;5.60;99.90
16511;DHT22;8368;48.772;8.754;2023-04-25T02:14:12;5.60;99.90
16511;DHT22;8368;48.772;8.754;2023-04-25T02:16:38;5.70;99.90
16511;DHT22;8368;48.772;8.754;2023-04-25T02:19:03;5.70;99.90
16511;DHT22;8368;48.772;8.754;2023-04-25T02:21:29;5.70;99.90
16511;DHT22;8368;48.772;8.754;2023-04-25T02:23:56;5.70;99.90
16511;DHT22;8368;48.772;8.754;2023-04-25T02:26:21;5.70;99.90
16511;DHT22;8368;48.772;8.754;2023-04-25T02:28:49;5.70;99.90
16511;DHT22;8368;48.772;8.754;2023-04-25T02:31:15;5.70;99.90
16511;DHT22;8368;48.772;8.754;2023-04-25T02:33:40;5.70;99.90
16511;DHT22;8368;48.772;8.754;2023-04-25T02:36:06;5.70;99.90
16511;DHT22;8368;48.772;8.754;2023-04-25T02:38:32;5.70;99.90
16511;DHT22;8368;48.772;8.754;2023-04-25T02:40:57;5.60;99.90
16511;DHT22;8368;48.772;8.754;2023-04-25T02:43:23;5.60;99.90
16511;DHT22;8368;48.772;8.754;2023-04-25T02:45:48;5.60;99.90
16511;DHT22;8368;48.772;8.754;2023-04-25T02:48:14;5.70;99.90
16511;DHT22;8368;48.772;8.754;2023-04-25T02:50:39;5.60;99.90
16511;DHT22;8368;48.772;8.754;2023-04-25T02:53:05;5.70;99.90
16511;DHT22;8368;48.772;8.754;2023-04-25T02:55:30;5.70;99.90
16511;DHT22;8368;48.772;8.754;2023-04-25T02:57:56;5.70;99.90
16511;DHT22;8368;48.772;8.754;2023-04-25T03:00:21;5.70;99.90
16511;DHT22;8368;48.772;8.754;2023-04-25T03:02:47;5.80;99.90
16511;DHT22;8368;48.772;8.754;2023-04-25T03:05:13;5.80;99.90
16511;DHT22;8368;48.772;8.754;2023-04-25T03:07:39;5.80;99.90
16511;DHT22;8368;48.772;8.754;2023-04-25T03:10:06;5.80;99.90
16511;DHT22;8368;48.772;8.754;2023-04-25T03:12:32;5.90;99.90
16511;DHT22;8368;48.772;8.754;2023-04-25T03:14:57;5.90;99.90
16511;DHT22;8368;48.772;8.754;2023-04-25T03:17:23;5.90;99.90
16511;DHT22;8368;48.772;8.754;2023-04-25T03:19:48;5.90;99.90
16511;DHT22;8368;48.772;8.754;2023-04-25T03:22:14;5.90;99.90
16511;DHT22;8368;48.772;8.754;2023-04-25T03:24:39;5.80;99.90
16511;DHT22;8368;48.772;8.754;2023-04-25T03:27:05;5.80;99.90
16511;DHT22;8368;48.772;8.754;2023-04-25T03:29:31;5.80;99.90
16511;DHT22;8368;48.772;8.754;2023-04-25T03:31:56;5.70;99.90
16511;DHT22;8368;48.772;8.754;2023-04-25T03:34:22;5.60;99.90
16511;DHT22;8368;48.772;8.754;2023-04-25T03:36:47;5.60;99.90
16511;DHT22;8368;48.772;8.754;2023-04-25T03:39:13;5.40;99.90
16511;DHT22;8368;48.772;8.754;2023-04-25T03:41:38;5.40;99.90
16511;DHT22;8368;48.772;8.754;2023-04-25T03:44:04;5.30;99.90
16511;DHT22;8368;48.772;8.754;2023-04-25T03:46:30;5.30;99.90
16511;DHT22;8368;48.772;8.754;2023-04-25T03:48:55;5.10;99.90
16511;DHT22;8368;48.772;8.754;2023-04-25T03:51:21;5.10;99.90
16511;DHT22;8368;48.772;8.754;2023-04-25T03:53:47;5.00;99.90
16511;DHT22;8368;48.772;8.754;2023-04-25T03:56:12;5.00;99.90
16511;DHT22;8368;48.772;8.754;2023-04-25T03:58:38;5.00;99.90
16511;DHT22;8368;48.772;8.754;2023-04-25T04:01:04;5.00;99.90
16511;DHT22;8368;48.772;8.754;2023-04-25T04:03:33;4.90;99.90
16511;DHT22;8368;48.772;8.754;2023-04-25T04:05:59;4.90;99.90
16511;DHT22;8368;48.772;8.754;2023-04-25T04:08:25;5.00;99.90
16511;DHT22;8368;48.772;8.754;2023-04-25T04:10:50;4.90;99.90
16511;DHT22;8368;48.772;8.754;2023-04-25T04:13:16;5.00;99.90
16511;DHT22;8368;48.772;8.754;2023-04-25T04:15:41;5.00;99.90
16511;DHT22;8368;48.772;8.754;2023-04-25T04:18:07;5.10;99.90
16511;DHT22;8368;48.772;8.754;2023-04-25T04:20:33;5.10;99.90
16511;DHT22;8368;48.772;8.754;2023-04-25T04:22:58;5.10;99.90
16511;DHT22;8368;48.772;8.754;2023-04-25T04:25:24;5.10;99.90
16511;DHT22;8368;48.772;8.754;2023-04-25T04:27:50;5.20;99.90
16511;DHT22;8368;48.772;8.754;2023-04-25T04:30:23;5.20;99.90
16511;DHT22;8368;48.772;8.754;2023-04-25T04:32:55;5.30;99.90
16511;DHT22;8368;48.772;8.754;2023-04-25T04:35:21;5.30;99.90
16511;DHT22;8368;48.772;8.754;2023-04-25T04:37:47;5.30;99.90
16511;DHT22;8368;48.772;8.754;2023-04-25T04:40:13;5.40;99.90
16511;DHT22;8368;48.772;8.754;2023-04-25T04:42:43;5.40;99.90
16511;DHT22;8368;48.772;8.754;2023-04-25T04:45:09;5.40;99.90
16511;DHT22;8368;48.772;8.754;2023-04-25T04:47:35;5.40;99.90
16511;DHT22;8368;48.772;8.754;2023-04-25T04:50:02;5.50;99.90
16511;DHT22;8368;48.772;8.754;2023-04-25T04:52:28;5.60;99.90
16511;DHT22;8368;48.772;8.754;2023-04-25T04:54:53;5.70;99.90
16511;DHT22;8368;48.772;8.754;2023-04-25T04:57:19;5.70;99.90
16511;DHT22;8368;48.772;8.754;2023-04-25T04:59:44;5.80;99.90
16511;DHT22;8368;48.772;8.754;2023-04-25T05:02:11;5.90;99.90
16511;DHT22;8368;48.772;8.754;2023-04-25T05:04:36;5.90;99.90
16511;DHT22;8368;48.772;8.754;2023-04-25T05:07:02;5.90;99.90
16511;DHT22;8368;48.772;8.754;2023-04-25T05:09:27;6.00;99.90
16511;DHT22;8368;48.772;8.754;2023-04-25T05:14:22;6.00;99.90
16511;DHT22;8368;48.772;8.754;2023-04-25T05:16:48;6.00;99.90
16511;DHT22;8368;48.772;8.754;2023-04-25T05:19:14;6.00;99.90
16511;DHT22;8368;48.772;8.754;2023-04-25T05:21:39;6.00;99.90
16511;DHT22;8368;48.772;8.754;2023-04-25T05:24:05;6.00;99.90
16511;DHT22;8368;48.772;8.754;2023-04-25T05:26:31;6.10;99.90
16511;DHT22;8368;48.772;8.754;2023-04-25T05:28:59;6.10;99.90
16511;DHT22;8368;48.772;8.754;2023-04-25T05:31:25;6.10;99.90
16511;DHT22;8368;48.772;8.754;2023-04-25T05:33:51;6.10;99.90
16511;DHT22;8368;48.772;8.754;2023-04-25T05:36:17;6.10;99.90
16511;DHT22;8368;48.772;8.754;2023-04-25T05:38:43;6.10;99.90
16511;DHT22;8368;48.772;8.754;2023-04-25T05:41:08;6.10;99.90
16511;DHT22;8368;48.772;8.754;2023-04-25T05:43:34;6.10;99.90
16511;DHT22;8368;48.772;8.754;2023-04-25T05:46:00;6.20;99.90
16511;DHT22;8368;48.772;8.754;2023-04-25T05:48:26;6.20;99.90
16511;DHT22;8368;48.772;8.754;2023-04-25T05:50:51;6.30;99.90
16511;DHT22;8368;48.772;8.754;2023-04-25T05:53:18;6.30;99.90
16511;DHT22;8368;48.772;8.754;2023-04-25T05:55:43;6.30;99.90
16511;DHT22;8368;48.772;8.754;2023-04-25T05:58:09;6.30;99.90
16511;DHT22;8368;48.772;8.754;2023-04-25T06:00:34;6.10;99.90
16511;DHT22;8368;48.772;8.754;2023-04-25T06:03:00;6.10;99.90
16511;DHT22;8368;48.772;8.754;2023-04-25T06:05:26;6.00;99.90
16511;DHT22;8368;48.772;8.754;2023-04-25T06:07:52;5.90;99.90
16511;DHT22;8368;48.772;8.754;2023-04-25T06:10:17;5.90;99.90
16511;DHT22;8368;48.772;8.754;2023-04-25T06:12:44;5.90;99.90
16511;DHT22;8368;48.772;8.754;2023-04-25T06:15:09;5.90;99.90
16511;DHT22;8368;48.772;8.754;2023-04-25T06:17:35;5.90;99.90
16511;DHT22;8368;48.772;8.754;2023-04-25T06:20:01;5.80;99.90
16511;DHT22;8368;48.772;8.754;2023-04-25T06:22:27;5.80;99.90
16511;DHT22;8368;48.772;8.754;2023-04-25T06:24:52;5.80;99.90
16511;DHT22;8368;48.772;8.754;2023-04-25T06:27:18;5.80;99.90
16511;DHT22;8368;48.772;8.754;2023-04-25T06:29:43;5.80;99.90
16511;DHT22;8368;48.772;8.754;2023-04-25T06:32:09;5.80;99.90
16511;DHT22;8368;48.772;8.754;2023-04-25T06:34:35;5.80;99.90
16511;DHT22;8368;48.772;8.754;2023-04-25T06:37:00;5.80;99.90
16511;DHT22;8368;48.772;8.754;2023-04-25T06:39:26;5.80;99.90
16511;DHT22;8368;48.772;8.754;2023-04-25T06:41:51;5.80;99.90
16511;DHT22;8368;48.772;8.754;2023-04-25T06:44:17;5.80;99.90
16511;DHT22;8368;48.772;8.754;2023-04-25T06:46:42;5.80;99.90
16511;DHT22;8368;48.772;8.754;2023-04-25T06:49:08;5.80;99.90
16511;DHT22;8368;48.772;8.754;2023-04-25T06:51:33;5.80;99.90
16511;DHT22;8368;48.772;8.754;2023-04-25T06:53:59;5.80;99.90
16511;DHT22;8368;48.772;8.754;2023-04-25T06:56:25;5.70;99.90
16511;DHT22;8368;48.772;8.754;2023-04-25T06:58:50;5.70;99.90
16511;DHT22;8368;48.772;8.754;2023-04-25T07:01:16;5.70;99.90
16511;DHT22;8368;48.772;8.754;2023-04-25T07:03:41;5.60;99.90
16511;DHT22;8368;48.772;8.754;2023-04-25T07:06:07;5.60;99.90
16511;DHT22;8368;48.772;8.754;2023-04-25T07:08:33;5.60;99.90
16511;DHT22;8368;48.772;8.754;2023-04-25T07:10:58;5.60;99.90
16511;DHT22;8368;48.772;8.754;2023-04-25T07:13:24;5.60;99.90
16511;DHT22;8368;48.772;8.754;2023-04-25T07:15:50;5.60;99.90
16511;DHT22;8368;48.772;8.754;2023-04-25T07:18:15;5.70;99.90
16511;DHT22;8368;48.772;8.754;2023-04-25T07:20:41;5.70;99.90
16511;DHT22;8368;48.772;8.754;2023-04-25T07:23:06;5.70;99.90
16511;DHT22;8368;48.772;8.754;2023-04-25T07:25:32;5.70;99.90
16511;DHT22;8368;48.772;8.754;2023-04-25T07:27:58;5.70;99.90
16511;DHT22;8368;48.772;8.754;2023-04-25T07:30:23;5.80;99.90
16511;DHT22;8368;48.772;8.754;2023-04-25T07:32:49;5.70;99.90
16511;DHT22;8368;48.772;8.754;2023-04-25T07:35:15;5.70;99.90
16511;DHT22;8368;48.772;8.754;2023-04-25T07:37:41;5.70;99.90
16511;DHT22;8368;48.772;8.754;2023-04-25T07:40:07;5.70;99.90
16511;DHT22;8368;48.772;8.754;2023-04-25T07:42:34;5.60;99.90
16511;DHT22;8368;48.772;8.754;2023-04-25T07:45:00;5.70;99.90
16511;DHT22;8368;48.772;8.754;2023-04-25T07:47:26;5.60;99.90
16511;DHT22;8368;48.772;8.754;2023-04-25T07:49:52;5.70;99.90
16511;DHT22;8368;48.772;8.754;2023-04-25T07:52:17;5.70;99.90
16511;DHT22;8368;48.772;8.754;2023-04-25T07:54:43;5.70;99.90
16511;DHT22;8368;48.772;8.754;2023-04-25T07:57:08;5.80;99.90
16511;DHT22;8368;48.772;8.754;2023-04-25T07:59:34;5.80;99.90
16511;DHT22;8368;48.772;8.754;2023-04-25T08:02:01;5.80;99.90
16511;DHT22;8368;48.772;8.754;2023-04-25T08:04:26;5.80;99.90
16511;DHT22;8368;48.772;8.754;2023-04-25T08:06:52;5.80;99.90
16511;DHT22;8368;48.772;8.754;2023-04-25T08:09:19;5.80;99.90
16511;DHT22;8368;48.772;8.754;2023-04-25T08:11:45;5.80;99.90
16511;DHT22;8368;48.772;8.754;2023-04-25T08:14:11;5.80;99.90
16511;DHT22;8368;48.772;8.754;2023-04-25T08:16:37;5.80;99.90
16511;DHT22;8368;48.772;8.754;2023-04-25T08:19:03;5.80;99.90
16511;DHT22;8368;48.772;8.754;2023-04-25T08:21:28;5.80;99.90
16511;DHT22;8368;48.772;8.754;2023-04-25T08:23:54;5.80;99.90
16511;DHT22;8368;48.772;8.754;2023-04-25T08:26:20;5.90;99.90
16511;DHT22;8368;48.772;8.754;2023-04-25T08:28:46;5.90;99.90
16511;DHT22;8368;48.772;8.754;2023-04-25T08:31:12;6.00;99.90
16511;DHT22;8368;48.772;8.754;2023-04-25T08:33:37;5.90;99.90
16511;DHT22;8368;48.772;8.754;2023-04-25T08:36:03;6.00;99.90
16511;DHT22;8368;48.772;8.754;2023-04-25T08:38:28;6.00;99.90
16511;DHT22;8368;48.772;8.754;2023-04-25T08:40:54;5.90;99.90
16511;DHT22;8368;48.772;8.754;2023-04-25T08:43:23;5.90;99.90
16511;DHT22;8368;48.772;8.754;2023-04-25T08:45:52;5.80;99.90
16511;DHT22;8368;48.772;8.754;2023-04-25T08:48:19;5.70;99.90
16511;DHT22;8368;48.772;8.754;2023-04-25T08:50:52;5.50;99.90
16511;DHT22;8368;48.772;8.754;2023-04-25T08:53:29;5.40;99.90
16511;DHT22;8368;48.772;8.754;2023-04-25T08:55:56;5.40;99.90
16511;DHT22;8368;48.772;8.754;2023-04-25T08:58:22;5.40;99.90
16511;DHT22;8368;48.772;8.754;2023-04-25T09:00:48;5.40;99.90
16511;DHT22;8368;48.772;8.754;2023-04-25T09:03:15;5.30;99.90
16511;DHT22;8368;48.772;8.754;2023-04-25T09:05:41;5.30;99.90
16511;DHT22;8368;48.772;8.754;2023-04-25T09:08:07;5.30;99.90
16511;DHT22;8368;48.772;8.754;2023-04-25T09:10:33;5.30;99.90
16511;DHT22;8368;48.772;8.754;2023-04-25T09:13:06;5.40;99.90
16511;DHT22;8368;48.772;8.754;2023-04-25T09:15:32;5.40;99.90
16511;DHT22;8368;48.772;8.754;2023-04-25T09:17:58;5.40;99.90
16511;DHT22;8368;48.772;8.754;2023-04-25T09:20:25;5.50;99.90
16511;DHT22;8368;48.772;8.754;2023-04-25T09:23:03;5.50;99.90
16511;DHT22;8368;48.772;8.754;2023-04-25T09:25:36;5.40;99.90
16511;DHT22;8368;48.772;8.754;2023-04-25T09:28:06;5.40;99.90
16511;DHT22;8368;48.772;8.754;2023-04-25T09:30:33;5.50;99.90
16511;DHT22;8368;48.772;8.754;2023-04-25T09:33:10;5.50;99.90
16511;DHT22;8368;48.772;8.754;2023-04-25T09:35:38;5.60;99.90
16511;DHT22;8368;48.772;8.754;2023-04-25T09:38:12;5.70;99.90
16511;DHT22;8368;48.772;8.754;2023-04-25T09:40:40;5.80;99.90
16511;DHT22;8368;48.772;8.754;2023-04-25T09:43:09;5.70;99.90
16511;DHT22;8368;48.772;8.754;2023-04-25T09:45:41;5.80;99.90
16511;DHT22;8368;48.772;8.754;2023-04-25T09:48:11;5.80;99.90
16511;DHT22;8368;48.772;8.754;2023-04-25T09:50:37;5.80;99.90
16511;DHT22;8368;48.772;8.754;2023-04-25T09:53:04;5.80;99.90
16511;DHT22;8368;48.772;8.754;2023-04-25T09:55:34;5.90;99.90
16511;DHT22;8368;48.772;8.754;2023-04-25T09:58:04;5.90;99.90
16511;DHT22;8368;48.772;8.754;2023-04-25T10:00:34;5.90;99.90
16511;DHT22;8368;48.772;8.754;2023-04-25T10:03:02;6.00;99.90
16511;DHT22;8368;48.772;8.754;2023-04-25T10:05:32;6.00;99.90
16511;DHT22;8368;48.772;8.754;2023-04-25T10:08:02;6.10;99.90
16511;DHT22;8368;48.772;8.754;2023-04-25T10:10:29;6.00;99.90
16511;DHT22;8368;48.772;8.754;2023-04-25T10:12:58;6.10;99.90
16511;DHT22;8368;48.772;8.754;2023-04-25T10:15:24;6.10;99.90
16511;DHT22;8368;48.772;8.754;2023-04-25T10:17:50;6.20;99.90
16511;DHT22;8368;48.772;8.754;2023-04-25T10:20:16;6.40;99.90
16511;DHT22;8368;48.772;8.754;2023-04-25T10:22:44;6.30;99.90
16511;DHT22;8368;48.772;8.754;2023-04-25T10:25:10;6.40;99.90
16511;DHT22;8368;48.772;8.754;2023-04-25T10:27:36;6.30;99.90
16511;DHT22;8368;48.772;8.754;2023-04-25T10:30:03;6.40;99.90
16511;DHT22;8368;48.772;8.754;2023-04-25T10:32:31;6.60;99.90
16511;DHT22;8368;48.772;8.754;2023-04-25T10:34:57;6.80;99.90
16511;DHT22;8368;48.772;8.754;2023-04-25T10:37:24;6.90;99.90
16511;DHT22;8368;48.772;8.754;2023-04-25T10:39:49;6.90;99.90
16511;DHT22;8368;48.772;8.754;2023-04-25T10:42:15;6.90;99.90
16511;DHT22;8368;48.772;8.754;2023-04-25T10:45:09;6.80;99.90
16511;DHT22;8368;48.772;8.754;2023-04-25T10:47:36;6.80;99.90
16511;DHT22;8368;48.772;8.754;2023-04-25T10:50:08;6.70;99.90
16511;DHT22;8368;48.772;8.754;2023-04-25T10:52:34;6.70;99.90
16511;DHT22;8368;48.772;8.754;2023-04-25T10:55:03;6.60;99.90
16511;DHT22;8368;48.772;8.754;2023-04-25T11:02:30;5.90;99.90
16511;DHT22;8368;48.772;8.754;2023-04-25T11:04:56;5.80;99.90
16511;DHT22;8368;48.772;8.754;2023-04-25T11:09:56;5.60;99.90
16511;DHT22;8368;48.772;8.754;2023-04-25T11:12:24;5.60;99.90
16511;DHT22;8368;48.772;8.754;2023-04-25T11:14:50;5.60;99.90
16511;DHT22;8368;48.772;8.754;2023-04-25T11:17:15;5.60;99.90
16511;DHT22;8368;48.772;8.754;2023-04-25T11:19:41;5.80;99.90
16511;DHT22;8368;48.772;8.754;2023-04-25T11:22:06;6.00;99.90
16511;DHT22;8368;48.772;8.754;2023-04-25T11:24:34;6.20;99.90
16511;DHT22;8368;48.772;8.754;2023-04-25T11:27:01;6.20;99.90
16511;DHT22;8368;48.772;8.754;2023-04-25T11:29:30;6.20;99.90
16511;DHT22;8368;48.772;8.754;2023-04-25T11:31:56;6.10;99.90
16511;DHT22;8368;48.772;8.754;2023-04-25T11:34:30;6.00;99.90
16511;DHT22;8368;48.772;8.754;2023-04-25T11:36:59;5.90;99.90
16511;DHT22;8368;48.772;8.754;2023-04-25T11:39:26;5.80;99.90
16511;DHT22;8368;48.772;8.754;2023-04-25T11:41:52;5.80;99.90
16511;DHT22;8368;48.772;8.754;2023-04-25T11:44:19;5.80;99.90
16511;DHT22;8368;48.772;8.754;2023-04-25T11:46:45;5.90;99.90
16511;DHT22;8368;48.772;8.754;2023-04-25T11:49:11;5.90;99.90
16511;DHT22;8368;48.772;8.754;2023-04-25T11:51:41;5.80;99.90
16511;DHT22;8368;48.772;8.754;2023-04-25T11:54:06;5.80;99.90
16511;DHT22;8368;48.772;8.754;2023-04-25T11:56:32;5.80;99.90
16511;DHT22;8368;48.772;8.754;2023-04-25T11:59:00;5.70;99.90
16511;DHT22;8368;48.772;8.754;2023-04-25T12:01:34;5.70;99.90
16511;DHT22;8368;48.772;8.754;2023-04-25T12:04:20;5.70;99.90
16511;DHT22;8368;48.772;8.754;2023-04-25T12:06:47;5.70;99.90
16511;DHT22;8368;48.772;8.754;2023-04-25T12:09:15;5.90;99.90
16511;DHT22;8368;48.772;8.754;2023-04-25T12:11:45;6.00;99.90
16511;DHT22;8368;48.772;8.754;2023-04-25T12:14:12;6.20;99.90
16511;DHT22;8368;48.772;8.754;2023-04-25T12:19:07;6.60;99.90
16511;DHT22;8368;48.772;8.754;2023-04-25T12:21:32;6.80;99.90
16511;DHT22;8368;48.772;8.754;2023-04-25T12:24:16;7.10;99.90
16511;DHT22;8368;48.772;8.754;2023-04-25T12:27:03;7.70;99.90
16511;DHT22;8368;48.772;8.754;2023-04-25T12:29:31;8.10;99.90
16511;DHT22;8368;48.772;8.754;2023-04-25T12:31:58;8.10;99.90
16511;DHT22;8368;48.772;8.754;2023-04-25T12:34:24;8.10;99.90
16511;DHT22;8368;48.772;8.754;2023-04-25T12:36:50;8.10;99.90
16511;DHT22;8368;48.772;8.754;2023-04-25T12:39:23;8.10;99.90
16511;DHT22;8368;48.772;8.754;2023-04-25T12:41:50;8.20;99.90
16511;DHT22;8368;48.772;8.754;2023-04-25T12:44:16;8.20;99.90
16511;DHT22;8368;48.772;8.754;2023-04-25T12:46:42;8.30;99.90
16511;DHT22;8368;48.772;8.754;2023-04-25T12:49:08;8.40;99.90
16511;DHT22;8368;48.772;8.754;2023-04-25T12:51:37;8.40;99.90
16511;DHT22;8368;48.772;8.754;2023-04-25T12:54:04;8.20;99.90
16511;DHT22;8368;48.772;8.754;2023-04-25T12:56:31;8.10;99.90
16511;DHT22;8368;48.772;8.754;2023-04-25T12:58:57;8.00;99.90
16511;DHT22;8368;48.772;8.754;2023-04-25T13:01:23;8.00;99.90
16511;DHT22;8368;48.772;8.754;2023-04-25T13:03:49;7.90;99.90
16511;DHT22;8368;48.772;8.754;2023-04-25T13:06:15;8.00;99.90
16511;DHT22;8368;48.772;8.754;2023-04-25T13:08:41;8.20;99.90
16511;DHT22;8368;48.772;8.754;2023-04-25T13:11:07;8.50;99.90
16511;DHT22;8368;48.772;8.754;2023-04-25T13:13:33;8.50;99.90
16511;DHT22;8368;48.772;8.754;2023-04-25T13:16:03;8.50;99.90
16511;DHT22;8368;48.772;8.754;2023-04-25T13:18:30;8.50;99.90
16511;DHT22;8368;48.772;8.754;2023-04-25T13:20:56;8.60;99.90
16511;DHT22;8368;48.772;8.754;2023-04-25T13:23:22;8.60;99.90
16511;DHT22;8368;48.772;8.754;2023-04-25T13:25:48;8.60;99.90
16511;DHT22;8368;48.772;8.754;2023-04-25T13:28:14;8.60;99.90
16511;DHT22;8368;48.772;8.754;2023-04-25T13:30:40;8.60;99.90
16511;DHT22;8368;48.772;8.754;2023-04-25T13:33:06;8.30;99.90
16511;DHT22;8368;48.772;8.754;2023-04-25T13:35:33;8.30;99.90
16511;DHT22;8368;48.772;8.754;2023-04-25T13:37:59;8.30;99.90
16511;DHT22;8368;48.772;8.754;2023-04-25T13:40:25;8.30;99.90
16511;DHT22;8368;48.772;8.754;2023-04-25T13:42:50;8.20;99.90
16511;DHT22;8368;48.772;8.754;2023-04-25T13:45:16;8.20;99.90
16511;DHT22;8368;48.772;8.754;2023-04-25T13:47:42;8.20;99.90
16511;DHT22;8368;48.772;8.754;2023-04-25T13:50:08;8.30;99.90
16511;DHT22;8368;48.772;8.754;2023-04-25T13:52:33;8.40;99.90
16511;DHT22;8368;48.772;8.754;2023-04-25T13:54:59;8.50;99.90
16511;DHT22;8368;48.772;8.754;2023-04-25T13:57:25;8.60;99.90
16511;DHT22;8368;48.772;8.754;2023-04-25T13:59:51;8.90;99.90
16511;DHT22;8368;48.772;8.754;2023-04-25T14:02:17;9.20;99.90
16511;DHT22;8368;48.772;8.754;2023-04-25T14:04:43;9.10;99.90
16511;DHT22;8368;48.772;8.754;2023-04-25T14:07:08;9.00;99.90
16511;DHT22;8368;48.772;8.754;2023-04-25T14:09:34;9.00;99.90
16511;DHT22;8368;48.772;8.754;2023-04-25T14:12:00;9.20;99.90
16511;DHT22;8368;48.772;8.754;2023-04-25T14:14:26;9.00;99.90
16511;DHT22;8368;48.772;8.754;2023-04-25T14:16:51;9.20;99.90
16511;DHT22;8368;48.772;8.754;2023-04-25T14:19:19;9.20;99.90
16511;DHT22;8368;48.772;8.754;2023-04-25T14:21:45;9.10;99.90
16511;DHT22;8368;48.772;8.754;2023-04-25T14:24:11;9.30;99.90
16511;DHT22;8368;48.772;8.754;2023-04-25T14:26:38;9.40;99.90
16511;DHT22;8368;48.772;8.754;2023-04-25T14:29:05;9.70;99.90
16511;DHT22;8368;48.772;8.754;2023-04-25T14:31:34;10.20;99.90
16511;DHT22;8368;48.772;8.754;2023-04-25T14:34:01;10.60;99.90
16511;DHT22;8368;48.772;8.754;2023-04-25T14:36:28;10.40;99.90
16511;DHT22;8368;48.772;8.754;2023-04-25T14:38:54;10.60;99.90
16511;DHT22;8368;48.772;8.754;2023-04-25T14:41:20;10.60;99.90
16511;DHT22;8368;48.772;8.754;2023-04-25T14:43:46;10.60;99.90
16511;DHT22;8368;48.772;8.754;2023-04-25T14:46:12;11.10;99.90
16511;DHT22;8368;48.772;8.754;2023-04-25T14:48:38;11.10;99.90
16511;DHT22;8368;48.772;8.754;2023-04-25T14:51:04;11.10;99.90
16511;DHT22;8368;48.772;8.754;2023-04-25T14:53:30;10.90;99.90
16511;DHT22;8368;48.772;8.754;2023-04-25T14:55:56;10.50;99.90
16511;DHT22;8368;48.772;8.754;2023-04-25T14:58:22;10.60;99.90
16511;DHT22;8368;48.772;8.754;2023-04-25T15:00:48;10.50;99.90
16511;DHT22;8368;48.772;8.754;2023-04-25T15:03:13;10.40;99.90
16511;DHT22;8368;48.772;8.754;2023-04-25T15:05:41;10.40;99.90
16511;DHT22;8368;48.772;8.754;2023-04-25T15:08:07;10.00;99.90
16511;DHT22;8368;48.772;8.754;2023-04-25T15:10:33;9.90;99.90
16511;DHT22;8368;48.772;8.754;2023-04-25T15:12:59;9.90;99.90
16511;DHT22;8368;48.772;8.754;2023-04-25T15:15:24;10.00;99.90
16511;DHT22;8368;48.772;8.754;2023-04-25T15:17:50;10.10;99.90
16511;DHT22;8368;48.772;8.754;2023-04-25T15:20:16;10.20;99.90
16511;DHT22;8368;48.772;8.754;2023-04-25T15:22:43;10.20;99.90
16511;DHT22;8368;48.772;8.754;2023-04-25T15:25:09;10.10;99.90
16511;DHT22;8368;48.772;8.754;2023-04-25T15:27:37;10.10;99.90
16511;DHT22;8368;48.772;8.754;2023-04-25T15:30:07;10.00;99.90
16511;DHT22;8368;48.772;8.754;2023-04-25T15:32:33;9.70;99.90
16511;DHT22;8368;48.772;8.754;2023-04-25T15:35:01;9.60;99.90
16511;DHT22;8368;48.772;8.754;2023-04-25T15:37:27;9.40;99.90
16511;DHT22;8368;48.772;8.754;2023-04-25T15:40:08;9.30;99.90
16511;DHT22;8368;48.772;8.754;2023-04-25T15:42:43;9.30;99.90
16511;DHT22;8368;48.772;8.754;2023-04-25T15:45:10;9.30;99.90
16511;DHT22;8368;48.772;8.754;2023-04-25T15:47:38;9.30;99.90
16511;DHT22;8368;48.772;8.754;2023-04-25T15:50:05;9.20;99.90
16511;DHT22;8368;48.772;8.754;2023-04-25T15:52:33;9.10;99.90
16511;DHT22;8368;48.772;8.754;2023-04-25T15:54:58;9.10;99.90
16511;DHT22;8368;48.772;8.754;2023-04-25T15:57:24;9.20;99.90
16511;DHT22;8368;48.772;8.754;2023-04-25T15:59:50;9.20;99.90
16511;DHT22;8368;48.772;8.754;2023-04-25T16:02:16;9.30;99.90
16511;DHT22;8368;48.772;8.754;2023-04-25T16:04:42;9.40;99.90
16511;DHT22;8368;48.772;8.754;2023-04-25T16:07:08;9.60;99.90
16511;DHT22;8368;48.772;8.754;2023-04-25T16:09:34;9.70;99.90